Home PIREPS Pireps

Flight BEL12024TR

  • Submitted By: AndrĂ© Vincent
  • Departure Airport: Ontario International Airport (KONT)
  • Arrival Airport: Richmond International Airport (KRIC)
  • Aircraft: YOUR CHOICE (YC)
  • Flight Time: 05.07
  • Date Submitted: 21/09/2017
  • Status: Accepted
Flight Details
Gross Revenue:
(25 load / € 0.00 per unit
€ 0.00
Fuel Cost:
(19836 fuel used @ 4.84 / unit)
€ 96,006.24

Additional Log Information:

View Log

Aircraft Used in flight is Boeing 737-800 sabena paint
05:26 Brakes are On
05:27 Brakes are Released
05:33 You Took off @ 195 Knots and Flaps at Position 2
Departure Weather
KONT 210253Z 26008KT 10SM FEW032 20/15 A2984 RMK AO2 SLP095 T02000150 55000rn
05:33 You are Airborne and your Navigation Lights are off
05:33 Landing Gear Up @ 195 Knots and 990 Feet
10:08 You exceeded maximum bank angle
10:23 Landing Gear Down @ 130 Knots and 2490 Feet
10:28 You Landed @ 109 Knots and with -200 Vertical Speed
Arrival Weather
KRIC 210754Z 34003KT 10SM SCT250 19/18 A2999 RMK AO2 SLP157 T01940183rn
10:33 Brakes are On
10:34 Brussels Bel-Track1.0.1.2

Route Map

Corporate About Us Our Team Vacancies Information Fleet Route Network Rules and Regulations Operations Flight Schedules Event Center Tours Partners IVAO Vatsim Acars dev FSCB

fb Users Online Belgium Jos Viville,
2 Pilot(s) and 165 Guest(s) Online
CMS by phpVMS - Design by Crazycreatives.com - Copyright © 2018 - Brussels Airlines Virtual